createdAt,value
2023-10-14T00:02:28.238Z,1.30
2023-10-14T00:04:56.864Z,1.53
2023-10-14T00:07:26.940Z,1.50
2023-10-14T00:09:58.793Z,1.50
2023-10-14T00:12:29.796Z,1.60
2023-10-14T00:15:04.953Z,1.43
2023-10-14T00:17:42.878Z,1.77
2023-10-14T00:20:11.942Z,1.47
2023-10-14T00:22:40.708Z,1.47
2023-10-14T00:25:20.442Z,1.80
2023-10-14T00:27:51.935Z,2.07
2023-10-14T00:30:21.744Z,1.47
2023-10-14T00:32:51.448Z,1.73
2023-10-14T00:35:21.231Z,1.40
2023-10-14T00:37:49.604Z,1.60
2023-10-14T00:40:23.698Z,1.37
2023-10-14T00:42:53.230Z,1.60
2023-10-14T00:45:22.708Z,1.70
2023-10-14T00:47:52.497Z,1.40
2023-10-14T00:50:34.847Z,1.50
2023-10-14T00:53:07.151Z,1.47
2023-10-14T00:55:53.144Z,1.67
2023-10-14T00:58:24.711Z,1.50
2023-10-14T01:01:02.237Z,1.50
2023-10-14T01:03:33.178Z,1.80
2023-10-14T01:06:08.571Z,1.60
2023-10-14T01:08:39.634Z,2.17
2023-10-14T01:11:08.939Z,1.73
2023-10-14T01:13:37.299Z,1.33
2023-10-14T01:16:10.207Z,1.50
2023-10-14T01:18:42.715Z,1.77
2023-10-14T01:21:10.980Z,1.40
2023-10-14T01:23:42.388Z,1.70
2023-10-14T01:26:11.382Z,1.60
2023-10-14T01:28:45.837Z,1.40
2023-10-14T01:31:33.180Z,1.47
2023-10-14T01:34:03.305Z,1.70
2023-10-14T01:36:38.955Z,1.40
2023-10-14T01:39:13.142Z,1.60
2023-10-14T01:41:41.595Z,1.27
2023-10-14T01:44:11.273Z,1.60
2023-10-14T01:46:41.690Z,1.57
2023-10-14T01:49:18.228Z,1.27
2023-10-14T01:51:50.405Z,1.33
2023-10-14T01:54:20.177Z,1.67
2023-10-14T01:56:52.647Z,1.40
2023-10-14T01:59:24.649Z,1.60
2023-10-14T02:01:59.022Z,1.57
2023-10-14T02:04:28.329Z,1.80
2023-10-14T02:07:14.515Z,1.50
2023-10-14T02:09:44.160Z,1.30
2023-10-14T02:12:13.187Z,1.43
2023-10-14T02:14:45.572Z,1.87
2023-10-14T02:17:14.012Z,1.57
2023-10-14T02:19:43.169Z,1.80
2023-10-14T02:22:11.986Z,1.33
2023-10-14T02:24:42.258Z,1.93
2023-10-14T02:27:14.022Z,1.50
2023-10-14T02:29:44.744Z,1.57
2023-10-14T02:32:14.368Z,1.60
2023-10-14T02:34:45.497Z,1.37
2023-10-14T02:37:16.401Z,1.80
2023-10-14T02:39:45.773Z,1.40
2023-10-14T02:42:16.842Z,1.50
2023-10-14T02:44:47.680Z,1.20
2023-10-14T02:47:18.632Z,1.10
2023-10-14T02:49:47.438Z,1.40
2023-10-14T02:52:20.079Z,1.20
2023-10-14T02:54:55.777Z,1.40
2023-10-14T02:57:25.967Z,1.43
2023-10-14T02:59:57.483Z,1.27
2023-10-14T03:02:49.561Z,1.50
2023-10-14T03:05:34.085Z,1.50
2023-10-14T03:08:10.197Z,1.40
2023-10-14T03:10:41.126Z,1.20
2023-10-14T03:13:13.441Z,1.60
2023-10-14T03:15:44.119Z,1.20
2023-10-14T03:18:18.156Z,1.50
2023-10-14T03:21:00.085Z,1.43
2023-10-14T03:23:29.877Z,1.63
2023-10-14T03:26:07.027Z,1.40
2023-10-14T03:28:38.808Z,1.60
2023-10-14T03:31:09.921Z,1.90
2023-10-14T03:33:44.209Z,1.70
2023-10-14T03:36:17.079Z,1.60
2023-10-14T03:38:55.929Z,1.63
2023-10-14T03:41:31.438Z,1.30
2023-10-14T03:44:10.712Z,2.00
2023-10-14T03:46:43.978Z,1.37
2023-10-14T03:49:22.880Z,1.77
2023-10-14T03:51:53.693Z,1.33
2023-10-14T03:54:25.572Z,1.30
2023-10-14T03:56:54.011Z,1.30
2023-10-14T03:59:25.092Z,1.50
2023-10-14T04:01:58.906Z,1.60
2023-10-14T04:04:28.528Z,1.20
2023-10-14T04:07:12.134Z,1.30
2023-10-14T04:09:41.635Z,1.57
2023-10-14T04:12:13.678Z,1.70
2023-10-14T04:14:43.185Z,1.43
2023-10-14T04:17:19.753Z,1.40
2023-10-14T04:19:54.711Z,1.50
2023-10-14T04:22:32.931Z,1.10
2023-10-14T04:25:20.054Z,1.60
2023-10-14T04:28:18.841Z,1.53
2023-10-14T04:30:53.188Z,1.30
2023-10-14T04:33:35.250Z,1.40
2023-10-14T04:36:37.607Z,1.60
2023-10-14T04:39:16.394Z,1.70
2023-10-14T04:42:18.063Z,1.60
2023-10-14T04:44:55.203Z,1.60
2023-10-14T04:47:38.244Z,1.70
2023-10-14T04:50:14.460Z,1.47
2023-10-14T04:52:45.364Z,1.40
2023-10-14T04:55:26.554Z,1.10
2023-10-14T04:58:10.953Z,1.60
2023-10-14T05:00:44.135Z,1.67
2023-10-14T05:03:14.832Z,1.50
2023-10-14T05:05:51.209Z,1.50
2023-10-14T05:08:22.743Z,1.63
2023-10-14T05:10:52.647Z,1.40
2023-10-14T05:13:26.570Z,1.50
2023-10-14T05:16:04.610Z,1.10
2023-10-14T05:18:36.848Z,1.43
2023-10-14T05:21:13.924Z,1.40
2023-10-14T05:23:43.416Z,1.70
2023-10-14T05:26:15.567Z,1.67
2023-10-14T05:28:48.465Z,1.20
2023-10-14T05:31:17.650Z,1.73
2023-10-14T05:33:50.102Z,1.30
2023-10-14T05:36:18.421Z,1.30
2023-10-14T05:38:46.710Z,1.73
2023-10-14T05:41:15.733Z,1.60
2023-10-14T05:43:43.860Z,1.63
2023-10-14T05:46:13.773Z,1.50
2023-10-14T05:48:42.198Z,1.17
2023-10-14T05:51:12.169Z,1.60
2023-10-14T05:53:40.573Z,1.70
2023-10-14T05:56:13.908Z,2.23
2023-10-14T05:58:42.296Z,1.83
2023-10-14T06:01:11.333Z,1.80
2023-10-14T06:03:40.723Z,1.57
2023-10-14T06:06:11.164Z,1.70
2023-10-14T06:08:41.843Z,1.47
2023-10-14T06:11:11.377Z,1.93
2023-10-14T06:13:39.482Z,1.80
2023-10-14T06:16:11.038Z,1.60
2023-10-14T06:18:40.115Z,1.53
2023-10-14T06:21:12.323Z,1.50
2023-10-14T06:23:48.181Z,1.70
2023-10-14T06:26:18.480Z,1.47
2023-10-14T06:28:46.857Z,1.50
2023-10-14T06:31:15.177Z,1.80
2023-10-14T06:33:43.474Z,1.73
2023-10-14T06:36:15.341Z,1.33
2023-10-14T06:38:46.375Z,1.20
2023-10-14T06:41:18.150Z,1.50
2023-10-14T06:43:48.759Z,1.47
2023-10-14T06:46:18.595Z,1.10
2023-10-14T06:48:53.552Z,1.70
2023-10-14T06:51:22.519Z,1.47
2023-10-14T06:53:53.612Z,2.97
2023-10-14T06:56:22.912Z,1.67
2023-10-14T06:58:52.815Z,1.30
2023-10-14T07:01:23.125Z,1.40
2023-10-14T07:03:53.560Z,1.50
2023-10-14T07:06:23.004Z,1.33
2023-10-14T07:08:52.140Z,1.80
2023-10-14T07:11:22.595Z,1.47
2023-10-14T07:13:51.859Z,1.43
2023-10-14T07:16:21.725Z,1.73
2023-10-14T07:18:49.999Z,1.90
2023-10-14T07:21:20.997Z,1.60
2023-10-14T07:23:51.776Z,1.40
2023-10-14T07:26:21.622Z,1.40
2023-10-14T07:28:52.921Z,1.60
2023-10-14T07:31:24.946Z,1.57
2023-10-14T07:33:54.741Z,1.43
2023-10-14T07:36:23.721Z,2.07
2023-10-14T07:38:51.997Z,1.23
2023-10-14T07:41:23.278Z,1.53
2023-10-14T07:43:51.443Z,1.50
2023-10-14T07:46:19.690Z,1.50
2023-10-14T07:48:48.625Z,1.20
2023-10-14T07:51:29.374Z,1.40
2023-10-14T07:53:58.647Z,1.53
2023-10-14T07:56:28.384Z,1.30
2023-10-14T07:58:56.906Z,1.30
2023-10-14T08:01:26.728Z,1.13
2023-10-14T08:03:58.133Z,1.10
2023-10-14T08:06:27.939Z,1.33
2023-10-14T08:08:56.365Z,1.30
2023-10-14T08:11:24.478Z,1.60
2023-10-14T08:13:53.924Z,1.53
2023-10-14T08:16:23.633Z,1.40
2023-10-14T08:18:55.289Z,1.00
2023-10-14T08:21:24.442Z,1.43
2023-10-14T08:23:52.685Z,1.77
2023-10-14T08:26:22.164Z,1.27
2023-10-14T08:28:50.738Z,1.40
2023-10-14T08:31:20.718Z,1.57
2023-10-14T08:33:49.228Z,1.80
2023-10-14T08:36:17.590Z,1.33
2023-10-14T08:38:48.871Z,1.40
2023-10-14T08:41:17.203Z,1.50
2023-10-14T08:43:50.868Z,1.33
2023-10-14T08:46:25.180Z,1.27
2023-10-14T08:48:55.224Z,1.57
2023-10-14T08:51:24.046Z,1.77
2023-10-14T08:53:54.705Z,1.13
2023-10-14T08:56:23.893Z,1.50
2023-10-14T08:58:52.050Z,1.40
2023-10-14T09:01:23.900Z,1.93
2023-10-14T09:03:52.353Z,1.57
2023-10-14T09:06:20.960Z,1.57
2023-10-14T09:08:51.383Z,1.17
2023-10-14T09:11:34.342Z,1.30
2023-10-14T09:14:04.464Z,1.17
2023-10-14T09:16:35.660Z,1.27
2023-10-14T09:19:06.494Z,1.40
2023-10-14T09:21:44.022Z,1.33
2023-10-14T09:24:12.330Z,1.33
2023-10-14T09:26:41.222Z,1.73
2023-10-14T09:29:11.112Z,1.50
2023-10-14T09:31:42.093Z,2.73
2023-10-14T09:34:24.039Z,1.10
2023-10-14T09:36:53.471Z,1.80
2023-10-14T09:39:26.199Z,1.40
2023-10-14T09:41:56.139Z,1.50
2023-10-14T09:44:24.473Z,2.30
2023-10-14T09:46:55.150Z,1.70
2023-10-14T09:49:24.483Z,1.57
2023-10-14T09:51:55.223Z,1.60
2023-10-14T09:54:25.004Z,1.30
2023-10-14T09:56:54.144Z,1.20
2023-10-14T09:59:23.968Z,1.60
2023-10-14T10:01:54.828Z,1.30
2023-10-14T10:04:25.861Z,1.10
2023-10-14T10:07:06.226Z,1.40
2023-10-14T10:10:03.044Z,1.50
2023-10-14T10:12:32.875Z,1.50
2023-10-14T10:15:04.035Z,1.63
2023-10-14T10:17:35.603Z,1.73
2023-10-14T10:20:10.361Z,1.43
2023-10-14T10:22:44.366Z,1.87
2023-10-14T10:25:15.905Z,1.43
2023-10-14T10:27:44.869Z,1.50
2023-10-14T10:30:15.334Z,1.70
2023-10-14T10:32:49.948Z,1.70
2023-10-14T10:35:19.431Z,1.10
2023-10-14T10:37:49.973Z,1.50
2023-10-14T10:40:27.345Z,1.30
2023-10-14T10:42:57.353Z,1.60
2023-10-14T10:45:31.113Z,1.50
2023-10-14T10:48:04.447Z,1.70
2023-10-14T10:50:36.811Z,1.90
2023-10-14T10:53:21.315Z,1.60
2023-10-14T10:55:52.937Z,1.60
2023-10-14T10:58:23.212Z,1.40
2023-10-14T11:00:53.157Z,1.63
2023-10-14T11:03:24.770Z,1.80
2023-10-14T11:05:54.747Z,1.70
2023-10-14T11:08:24.298Z,1.47
2023-10-14T11:10:52.909Z,1.40
2023-10-14T11:13:21.332Z,1.33
2023-10-14T11:15:51.771Z,1.63
2023-10-14T11:18:37.725Z,1.30
2023-10-14T11:21:08.747Z,1.27
2023-10-14T11:23:40.656Z,1.27
2023-10-14T11:26:12.620Z,1.50
2023-10-14T11:28:46.503Z,1.40
2023-10-14T11:31:15.596Z,1.67
2023-10-14T11:33:47.173Z,1.60
2023-10-14T11:36:19.293Z,1.20
2023-10-14T11:38:49.463Z,1.33
2023-10-14T11:41:18.908Z,1.60
2023-10-14T11:43:47.391Z,1.80
2023-10-14T11:46:16.167Z,1.30
2023-10-14T11:48:47.210Z,1.30
2023-10-14T11:51:22.457Z,1.40
2023-10-14T11:53:54.956Z,1.30
2023-10-14T11:56:22.374Z,1.10
2023-10-14T11:58:52.401Z,1.30
2023-10-14T12:01:25.478Z,1.27
2023-10-14T12:03:54.356Z,1.00
2023-10-14T12:06:24.166Z,1.90
2023-10-14T12:08:55.238Z,1.50
2023-10-14T12:11:23.455Z,1.37
2023-10-14T12:13:52.877Z,1.27
2023-10-14T12:16:22.868Z,1.20
2023-10-14T12:18:55.782Z,1.20
2023-10-14T12:21:25.730Z,1.20
2023-10-14T12:23:56.357Z,1.00
2023-10-14T12:26:38.012Z,1.03
2023-10-14T12:29:11.363Z,1.00
2023-10-14T12:31:54.001Z,1.40
2023-10-14T12:34:26.731Z,1.13
2023-10-14T12:36:56.257Z,1.10
2023-10-14T12:39:28.124Z,0.90
2023-10-14T12:42:04.742Z,1.20
2023-10-14T12:44:36.410Z,1.20
2023-10-14T12:47:12.519Z,1.00
2023-10-14T12:49:41.268Z,1.03
2023-10-14T12:52:14.808Z,1.50
2023-10-14T12:54:43.116Z,1.10
2023-10-14T12:57:13.154Z,0.97
2023-10-14T12:59:42.370Z,1.00
2023-10-14T13:02:11.209Z,0.70
2023-10-14T13:04:40.337Z,1.23
2023-10-14T13:07:10.783Z,1.10
2023-10-14T13:09:40.046Z,0.90
2023-10-14T13:12:17.278Z,1.10
2023-10-14T13:14:46.428Z,1.00
2023-10-14T13:17:14.709Z,1.00
2023-10-14T13:19:43.226Z,1.23
2023-10-14T13:22:14.966Z,1.03
2023-10-14T13:24:51.596Z,1.00
2023-10-14T13:27:21.195Z,1.23
2023-10-14T13:29:53.420Z,1.20
2023-10-14T13:32:25.953Z,1.07
2023-10-14T13:34:55.107Z,0.90
2023-10-14T13:37:26.268Z,1.20
2023-10-14T13:39:54.585Z,1.23
2023-10-14T13:42:24.547Z,1.13
2023-10-14T13:44:52.793Z,1.10
2023-10-14T13:47:21.747Z,1.00
2023-10-14T13:49:50.091Z,0.90
2023-10-14T13:52:19.260Z,0.80
2023-10-14T13:54:48.848Z,0.90
2023-10-14T13:57:19.281Z,0.83
2023-10-14T13:59:47.629Z,0.90
2023-10-14T14:02:15.926Z,0.70
2023-10-14T14:04:46.175Z,0.73
2023-10-14T14:07:14.648Z,0.93
2023-10-14T14:09:42.993Z,0.70
2023-10-14T14:12:12.806Z,0.80
2023-10-14T14:14:41.069Z,0.70
2023-10-14T14:17:09.248Z,0.80
2023-10-14T14:19:40.892Z,0.70
2023-10-14T14:22:09.572Z,1.00
2023-10-14T14:24:38.082Z,0.70
2023-10-14T14:27:06.252Z,0.80
2023-10-14T14:29:35.796Z,0.80
2023-10-14T14:32:07.005Z,0.80
2023-10-14T14:34:35.884Z,0.70
2023-10-14T14:37:04.651Z,0.80
2023-10-14T14:39:32.905Z,0.80
2023-10-14T14:42:02.845Z,0.80
2023-10-14T14:44:33.821Z,0.80
2023-10-14T14:47:04.433Z,0.67
2023-10-14T14:49:33.400Z,0.90
2023-10-14T14:52:02.219Z,0.80
2023-10-14T14:54:31.443Z,0.70
2023-10-14T14:57:01.107Z,0.80
2023-10-14T14:59:30.887Z,0.80
2023-10-14T15:01:59.132Z,0.90
2023-10-14T15:04:29.098Z,0.80
2023-10-14T15:06:57.685Z,0.63
2023-10-14T15:09:26.164Z,0.70
2023-10-14T15:11:56.425Z,0.80
2023-10-14T15:14:24.943Z,1.50
2023-10-14T15:16:53.226Z,0.83
2023-10-14T15:19:23.515Z,0.60
2023-10-14T15:21:54.286Z,0.60
2023-10-14T15:24:22.533Z,0.70
2023-10-14T15:26:50.721Z,0.80
2023-10-14T15:29:18.893Z,0.70
2023-10-14T15:31:47.752Z,0.60
2023-10-14T15:34:17.836Z,0.60
2023-10-14T15:36:46.602Z,0.60
2023-10-14T15:39:32.185Z,0.80
2023-10-14T15:42:01.676Z,0.70
2023-10-14T15:44:30.719Z,0.70
2023-10-14T15:47:01.019Z,0.70
2023-10-14T15:49:37.268Z,0.70
2023-10-14T15:52:05.929Z,0.70
2023-10-14T15:54:35.927Z,0.70
2023-10-14T15:57:09.722Z,0.73
2023-10-14T15:59:38.538Z,0.80
2023-10-14T16:02:07.091Z,0.60
2023-10-14T16:04:35.865Z,0.70
2023-10-14T16:07:04.363Z,0.70
2023-10-14T16:09:33.240Z,0.67
2023-10-14T16:12:04.769Z,0.60
2023-10-14T16:14:33.139Z,0.80
2023-10-14T16:17:02.264Z,0.70
2023-10-14T16:19:31.446Z,0.80
2023-10-14T16:21:59.740Z,0.97
2023-10-14T16:24:28.032Z,0.87
2023-10-14T16:26:56.235Z,0.70
2023-10-14T16:29:26.249Z,1.50
2023-10-14T16:31:55.830Z,1.13
2023-10-14T16:34:29.189Z,0.97
2023-10-14T16:36:57.963Z,1.10
2023-10-14T16:39:27.326Z,1.30
2023-10-14T16:41:56.157Z,0.97
2023-10-14T16:44:26.467Z,0.97
2023-10-14T16:46:55.397Z,0.90
2023-10-14T16:49:24.982Z,0.80
2023-10-14T16:51:53.624Z,1.43
2023-10-14T16:54:21.962Z,1.40
2023-10-14T16:56:51.408Z,0.73
2023-10-14T16:59:19.936Z,0.80
2023-10-14T17:01:50.566Z,0.90
2023-10-14T17:04:20.687Z,1.00
2023-10-14T17:06:49.029Z,0.80
2023-10-14T17:09:17.250Z,0.80
2023-10-14T17:11:47.988Z,0.73
2023-10-14T17:14:18.160Z,0.90
2023-10-14T17:16:46.604Z,0.70
2023-10-14T17:19:16.490Z,0.90
2023-10-14T17:21:46.582Z,0.90
2023-10-14T17:24:15.577Z,0.90
2023-10-14T17:26:44.426Z,0.83
2023-10-14T17:29:12.595Z,0.90
2023-10-14T17:31:41.068Z,1.10
2023-10-14T17:34:11.264Z,1.00
2023-10-14T17:36:41.656Z,0.80
2023-10-14T17:39:10.340Z,0.90
2023-10-14T17:41:38.685Z,1.00
2023-10-14T17:44:08.226Z,0.80
2023-10-14T17:46:37.087Z,1.07
2023-10-14T17:49:07.031Z,0.83
2023-10-14T17:51:36.997Z,0.80
2023-10-14T17:54:08.004Z,1.10
2023-10-14T17:56:36.207Z,0.90
2023-10-14T17:59:06.101Z,1.10
2023-10-14T18:01:35.376Z,0.77
2023-10-14T18:04:07.207Z,0.87
2023-10-14T18:06:36.770Z,1.03
2023-10-14T18:09:14.628Z,1.00
2023-10-14T18:11:45.715Z,0.83
2023-10-14T18:14:16.280Z,1.03
2023-10-14T18:17:00.711Z,0.93
2023-10-14T18:19:31.440Z,1.00
2023-10-14T18:21:59.675Z,1.00
2023-10-14T18:24:29.728Z,0.80
2023-10-14T18:26:57.916Z,1.10
2023-10-14T18:29:26.553Z,0.90
2023-10-14T18:31:56.259Z,0.97
2023-10-14T18:34:25.682Z,1.00
2023-10-14T18:36:56.695Z,0.90
2023-10-14T18:39:27.455Z,0.90
2023-10-14T18:41:57.356Z,0.83
2023-10-14T18:44:28.135Z,0.90
2023-10-14T18:46:58.164Z,0.90
2023-10-14T18:49:26.685Z,1.10
2023-10-14T18:51:56.189Z,1.10
2023-10-14T18:54:24.319Z,1.00
2023-10-14T18:56:54.699Z,1.20
2023-10-14T18:59:25.460Z,1.00
2023-10-14T19:01:54.137Z,1.07
2023-10-14T19:04:22.519Z,1.00
2023-10-14T19:06:52.643Z,1.10
2023-10-14T19:09:24.812Z,0.93
2023-10-14T19:11:53.356Z,1.10
2023-10-14T19:14:25.903Z,1.00
2023-10-14T19:16:58.001Z,0.90
2023-10-14T19:19:27.244Z,0.90
2023-10-14T19:21:55.541Z,1.00
2023-10-14T19:24:23.698Z,1.20
2023-10-14T19:26:52.898Z,1.10
2023-10-14T19:29:21.174Z,1.17
2023-10-14T19:31:49.945Z,0.97
2023-10-14T19:34:19.805Z,1.40
2023-10-14T19:36:49.068Z,1.00
2023-10-14T19:39:17.353Z,0.93
2023-10-14T19:41:45.808Z,1.03
2023-10-14T19:44:14.874Z,1.03
2023-10-14T19:46:43.073Z,0.97
2023-10-14T19:49:12.214Z,1.20
2023-10-14T19:51:42.628Z,1.20
2023-10-14T19:54:11.149Z,0.90
2023-10-14T19:56:39.985Z,0.90
2023-10-14T19:59:08.410Z,1.20
2023-10-14T20:01:40.268Z,1.10
2023-10-14T20:04:10.398Z,0.80
2023-10-14T20:06:38.969Z,0.90
2023-10-14T20:09:11.024Z,1.40
2023-10-14T20:11:40.023Z,0.90
2023-10-14T20:14:28.377Z,1.10
2023-10-14T20:16:56.761Z,1.07
2023-10-14T20:19:25.636Z,1.00
2023-10-14T20:21:55.404Z,0.90
2023-10-14T20:24:27.838Z,1.20
2023-10-14T20:26:56.017Z,1.30
2023-10-14T20:29:24.982Z,1.07
2023-10-14T20:34:24.036Z,1.03
2023-10-14T20:36:52.416Z,1.30
2023-10-14T20:39:29.451Z,1.10
2023-10-14T20:42:02.436Z,1.10
2023-10-14T20:44:33.555Z,1.13
2023-10-14T20:47:02.132Z,1.00
2023-10-14T20:49:31.716Z,0.93
2023-10-14T20:51:59.890Z,1.00
2023-10-14T20:54:28.132Z,1.07
2023-10-14T20:56:56.344Z,1.00
2023-10-14T20:59:26.452Z,1.07
2023-10-14T21:01:54.773Z,1.00
2023-10-14T21:04:23.889Z,1.17
2023-10-14T21:06:54.242Z,1.60
2023-10-14T21:09:22.926Z,1.30
2023-10-14T21:11:51.211Z,1.07
2023-10-14T21:14:19.434Z,1.07
2023-10-14T21:16:49.497Z,1.30
2023-10-14T21:19:17.865Z,1.30
2023-10-14T21:21:46.097Z,1.07
2023-10-14T21:24:14.275Z,0.90
2023-10-14T21:26:42.398Z,1.10
2023-10-14T21:29:10.638Z,1.20
2023-10-14T21:31:40.917Z,1.10
2023-10-14T21:34:10.999Z,1.20
2023-10-14T21:36:42.477Z,1.00
2023-10-14T21:39:10.742Z,1.20
2023-10-14T21:41:39.140Z,0.93
2023-10-14T21:44:07.570Z,1.20
2023-10-14T21:46:37.930Z,1.30
2023-10-14T21:49:07.506Z,1.10
2023-10-14T21:51:38.013Z,1.33
2023-10-14T21:54:06.918Z,1.00
2023-10-14T21:56:35.167Z,1.03
2023-10-14T21:59:05.538Z,1.50
2023-10-14T22:01:36.466Z,1.20
2023-10-14T22:04:05.956Z,1.20
2023-10-14T22:06:34.305Z,1.00
2023-10-14T22:09:04.569Z,1.10
2023-10-14T22:11:33.466Z,1.37
2023-10-14T22:14:01.623Z,1.13
2023-10-14T22:16:29.996Z,1.23
2023-10-14T22:18:59.044Z,1.10
2023-10-14T22:21:27.925Z,1.30
2023-10-14T22:23:56.235Z,1.20
2023-10-14T22:26:25.994Z,1.27
2023-10-14T22:28:54.755Z,1.40
2023-10-14T22:31:25.770Z,0.93
2023-10-14T22:33:54.549Z,1.20
2023-10-14T22:36:22.745Z,1.10
2023-10-14T22:38:51.788Z,1.00
2023-10-14T22:41:20.852Z,1.60
2023-10-14T22:43:52.802Z,1.00
2023-10-14T22:46:23.075Z,1.60
2023-10-14T22:48:51.338Z,1.00
2023-10-14T22:51:19.599Z,0.93
2023-10-14T22:53:47.815Z,1.10
2023-10-14T22:56:17.091Z,1.17
2023-10-14T22:58:45.615Z,1.23
2023-10-14T23:01:19.377Z,0.93
2023-10-14T23:03:47.992Z,1.37
2023-10-14T23:06:22.851Z,1.30
2023-10-14T23:08:51.162Z,1.00
2023-10-14T23:11:19.472Z,1.10
2023-10-14T23:13:48.870Z,1.20
2023-10-14T23:16:18.954Z,1.07
2023-10-14T23:18:48.111Z,1.10
2023-10-14T23:21:16.237Z,0.90
2023-10-14T23:23:44.444Z,0.93
2023-10-14T23:26:12.637Z,1.17
2023-10-14T23:28:40.803Z,1.20
2023-10-14T23:31:09.436Z,1.10
2023-10-14T23:33:43.108Z,1.10
2023-10-14T23:36:11.554Z,1.17
2023-10-14T23:38:39.871Z,1.57
2023-10-14T23:41:09.150Z,1.00
2023-10-14T23:43:40.460Z,1.20
2023-10-14T23:46:10.101Z,0.97
2023-10-14T23:48:39.723Z,1.00
2023-10-14T23:51:08.746Z,1.00
2023-10-14T23:53:36.957Z,0.90
2023-10-14T23:56:07.002Z,1.10
2023-10-14T23:58:35.456Z,0.80
